Aérodrome :
LOGIN :

S'inscrire | Disclaimer

   EN    FR    IT 

 










Légende :    VFR   VFR Marginal   IFR   IFR Intensif   IFR Très Intensif
Visi : 
Plafond : 
>= 8 km
>= 3000ft
5 à 8 km
1000 à 3000 ft
1500m à 5 km
500 à 1000 ft
800 à 1500m
200 à 500 ft
< 800m
< 200 ft
Symboles :   Orages  Brouillard  Fortes neiges  Fortes précipitations  Vent > 20 kt
SIGMETs :   Divers  Orages  Givrage  Turbulence  Onde Orograph.  Cendres Volcan.







- Altitude de l'aérodrome : 63 ft
- Code IATA : BZM


EHWO - Woensdrecht Airbase

DERNIER METAR :
  • 220725Z AUTO 24010KT 190V260 9999 FEW190 OVC330 20/13 Q1022 BLU 24010KT CAVOK

METARs EXPIRÉS :
  • 220656Z AUTO 24010KT 210V270 9999 OVC330 19/13 Q1022 BLU 24010KT CAVOK
  • 220625Z AUTO 24008KT 9999 BKN330 BKN390 18/13 Q1022 BLU 23007KT CAVOK
  • 220555Z AUTO 23007KT 9999 BKN260 BKN400 17/12 Q1022 BLU 23007KT CAVOK
  • 220533Z AUTO 23007KT 9999 SCT230 SCT280 OVC340 17/12 Q1022 BLU 23007KT CAVOK
  • 220525Z AUTO 23006KT 190V280 9999 OVC220 17/12 Q1022 BLU
  • 220455Z AUTO 22005KT 210V320 9999 BKN240 OVC300 16/13 Q1022 BLU
  • 220430Z AUTO VRB02KT 9999 OVC200 13/12 Q1022 BLU

TAF TAF EHWO
Valide du 22 à 05h jusqu'au 22 à 17h UTC


220431Z 2205/2217 VRB02KT CAVOK
BECMG 2205/2207 23007KT
PROB40
TEMPO 2209/2213 25010G22KT
Pas de NOTAMs connus pour ce terrain.



MET'MAP, la Météo Aéronautique d'un coup d'oeil ! - Copyright ORBIFLY Décembre 2007 - Disclaimer

ORBIFLY MET'MAP TEAM :

Programmation & Développement : Alexandra Zaïnal
Conception & Développement : Baudouin d'Aumeries
Co-Programmation & Développement : Marc-Olivier Méhu
Soutien technique & logistique : Manuel Goepfert

Contact : metmap@orbifly.com




SOURCES & CREDITS :

   NOAA